Time;durP1;ratioP1;P1;durP2;ratioP2;P2;SDS_P1;SDS_P2;PMS_P1;PMS_P2;Temp;Humidity;BMP_temperature;BMP_pressure;BME280_temperature;BME280_humidity;BME280_pressure;Samples;Min_cycle;Max_cycle;Signal;HPM_P1;HPM_P2
2022/06/04 07:07:54;;;;;;;12.75;4.18;;;;;;;;;;5071542;28;20047;-65
2022/06/04 07:10:20;;;;;;;12.00;4.53;;;;;;;;;;5075503;28;20041;-67
2022/06/04 07:12:46;;;;;;;14.10;3.92;;;;;;;;;;5075807;28;20041;-67
2022/06/04 07:15:12;;;;;;;9.55;3.58;;;;;;;;;;5075141;28;20032;-67
2022/06/04 07:17:38;;;;;;;11.80;3.75;;;;;;;;;;5074893;28;20036;-67
2022/06/04 07:20:04;;;;;;;14.30;3.67;;;;;;;;;;5074970;28;20036;-67
2022/06/04 07:22:31;;;;;;;9.38;3.45;;;;;;;;;;5075508;28;20086;-68
2022/06/04 07:24:57;;;;;;;8.13;3.75;;;;;;;;;;5073741;28;20497;-67
2022/06/04 07:27:23;;;;;;;11.55;3.95;;;;;;;;;;5073179;28;20517;-67
2022/06/04 07:29:49;;;;;;;13.77;3.80;;;;;;;;;;5074413;28;20039;-67
2022/06/04 07:32:15;;;;;;;13.88;4.22;;;;;;;;;;5074705;28;20144;-67
2022/06/04 07:34:41;;;;;;;15.63;3.70;;;;;;;;;;5075502;28;20029;-67
2022/06/04 07:37:09;;;;;;;12.25;3.90;;;;;;;;;;5074446;28;20103;-67
2022/06/04 07:39:35;;;;;;;14.48;3.80;;;;;;;;;;5074566;28;20032;-67
2022/06/04 07:42:01;;;;;;;10.43;3.90;;;;;;;;;;5074734;28;20064;-67
2022/06/04 07:44:28;;;;;;;10.73;3.72;;;;;;;;;;5071826;28;20424;-67
2022/06/04 07:46:55;;;;;;;11.18;4.22;;;;;;;;;;5074099;28;20055;-67
2022/06/04 07:49:21;;;;;;;17.40;4.22;;;;;;;;;;5074614;28;20450;-67
2022/06/04 07:51:48;;;;;;;15.85;4.28;;;;;;;;;;5074840;28;20048;-67
2022/06/04 07:54:14;;;;;;;9.70;3.80;;;;;;;;;;5073995;28;20142;-67
2022/06/04 07:56:40;;;;;;;13.32;4.68;;;;;;;;;;5074827;28;20032;-67
2022/06/04 07:59:08;;;;;;;13.77;3.85;;;;;;;;;;5074756;28;20033;-67
2022/06/04 08:01:34;;;;;;;13.38;4.22;;;;;;;;;;5074553;28;20112;-67
2022/06/04 08:04:00;;;;;;;18.13;4.50;;;;;;;;;;5074910;28;20032;-67
2022/06/04 08:06:26;;;;;;;13.02;4.32;;;;;;;;;;5074984;28;20405;-67
2022/06/04 08:08:57;;;;;;;13.77;4.00;;;;;;;;;;5072202;28;20135;-67
2022/06/04 08:11:33;;;;;;;15.80;4.43;;;;;;;;;;5072098;28;20033;-67
2022/06/04 08:14:05;;;;;;;13.43;3.83;;;;;;;;;;5072220;28;20032;-67
2022/06/04 08:16:32;;;;;;;10.88;4.45;;;;;;;;;;5074289;28;20043;-67
2022/06/04 08:18:58;;;;;;;14.30;5.63;;;;;;;;;;5074374;28;20435;-67
2022/06/04 08:21:24;;;;;;;9.20;4.00;;;;;;;;;;5074696;28;20033;-67
2022/06/04 08:23:50;;;;;;;17.98;4.15;;;;;;;;;;5074233;28;20111;-67
2022/06/04 08:26:17;;;;;;;15.95;4.43;;;;;;;;;;5074429;28;20064;-67
2022/06/04 08:28:43;;;;;;;14.13;3.55;;;;;;;;;;5074247;28;20111;-68
2022/06/04 08:31:12;;;;;;;12.85;3.63;;;;;;;;;;5074118;28;20036;-67
2022/06/04 08:33:39;;;;;;;11.13;3.78;;;;;;;;;;5074425;28;20392;-67
2022/06/04 08:36:05;;;;;;;8.93;3.20;;;;;;;;;;5074263;28;20082;-67
2022/06/04 08:38:32;;;;;;;14.18;3.75;;;;;;;;;;5073688;28;20149;-67
2022/06/04 08:41:00;;;;;;;12.88;3.95;;;;;;;;;;5074250;28;20059;-67
2022/06/04 08:43:38;;;;;;;17.58;3.67;;;;;;;;;;5074131;28;20032;-67
2022/06/04 08:46:09;;;;;;;12.52;3.42;;;;;;;;;;5073912;28;20029;-67
2022/06/04 08:48:37;;;;;;;13.20;4.57;;;;;;;;;;5074014;28;20028;-67
2022/06/04 08:51:06;;;;;;;15.75;4.07;;;;;;;;;;5073921;28;20039;-67
2022/06/04 08:53:32;;;;;;;11.30;3.70;;;;;;;;;;5089468;28;20047;-67
2022/06/04 08:58:54;;;;;;;11.75;3.92;;;;;;;;;;5073795;28;20643;-67
2022/06/04 09:01:40;;;;;;;10.07;4.45;;;;;;;;;;5073401;28;20037;-67
2022/06/04 09:04:10;;;;;;;9.43;3.83;;;;;;;;;;5073718;28;20397;-67
2022/06/04 09:06:51;;;;;;;10.45;3.63;;;;;;;;;;5073655;28;20404;-67
2022/06/04 09:09:17;;;;;;;16.77;4.07;;;;;;;;;;5073450;28;20055;-67
2022/06/04 09:11:55;;;;;;;14.02;3.30;;;;;;;;;;5073529;28;20028;-67
2022/06/04 09:14:36;;;;;;;17.88;4.03;;;;;;;;;;5073488;28;20456;-67
2022/06/04 09:17:10;;;;;;;11.52;2.88;;;;;;;;;;5073678;28;20067;-67
2022/06/04 09:19:37;;;;;;;11.55;3.50;;;;;;;;;;5073303;28;20083;-67
2022/06/04 09:22:11;;;;;;;9.65;3.10;;;;;;;;;;5073611;28;20033;-67
2022/06/04 09:24:37;;;;;;;20.02;4.28;;;;;;;;;;5073470;28;20366;-67
2022/06/04 09:27:14;;;;;;;12.65;3.45;;;;;;;;;;5073333;28;20123;-67
2022/06/04 09:29:43;;;;;;;12.07;3.33;;;;;;;;;;5073042;28;20052;-67
2022/06/04 09:32:09;;;;;;;13.70;3.53;;;;;;;;;;5073049;28;20033;-67
2022/06/04 09:34:38;;;;;;;10.70;3.60;;;;;;;;;;5073459;28;20402;-67
2022/06/04 09:37:05;;;;;;;10.23;3.28;;;;;;;;;;5073499;28;20064;-67
2022/06/04 09:39:33;;;;;;;18.20;3.40;;;;;;;;;;5073299;28;20024;-67
2022/06/04 09:41:59;;;;;;;10.43;3.10;;;;;;;;;;5073127;28;20033;-67
2022/06/04 09:44:26;;;;;;;14.52;3.70;;;;;;;;;;5073361;28;20039;-67
2022/06/04 09:47:07;;;;;;;19.25;3.65;;;;;;;;;;5073321;28;20115;-67
2022/06/04 09:49:35;;;;;;;16.23;3.92;;;;;;;;;;5073132;28;20047;-67
2022/06/04 09:52:22;;;;;;;12.07;3.42;;;;;;;;;;5072912;28;20044;-67
2022/06/04 09:54:55;;;;;;;11.02;3.67;;;;;;;;;;5073136;28;20111;-68
2022/06/04 09:57:35;;;;;;;11.93;3.30;;;;;;;;;;5072785;28;20032;-67
2022/06/04 10:00:05;;;;;;;14.50;3.72;;;;;;;;;;5073054;28;20032;-67
2022/06/04 10:02:32;;;;;;;15.77;3.90;;;;;;;;;;5073160;28;20060;-68
2022/06/04 10:05:06;;;;;;;16.75;5.00;;;;;;;;;;5072933;28;20107;-67
2022/06/04 10:07:41;;;;;;;11.88;3.38;;;;;;;;;;5073058;28;20094;-68
2022/06/04 10:10:26;;;;;;;14.18;4.05;;;;;;;;;;5072881;28;20119;-69
2022/06/04 10:15:40;;;;;;;12.68;3.78;;;;;;;;;;5072930;28;20043;-67
2022/06/04 10:18:16;;;;;;;12.30;4.88;;;;;;;;;;5076947;28;20116;-67
2022/06/04 10:20:42;;;;;;;11.32;3.92;;;;;;;;;;5076928;28;20102;-67
2022/06/04 10:23:15;;;;;;;12.43;5.28;;;;;;;;;;5077086;28;20035;-67
2022/06/04 10:25:53;;;;;;;12.25;4.50;;;;;;;;;;5076909;28;20036;-68
2022/06/04 10:28:25;;;;;;;16.10;4.40;;;;;;;;;;5076956;28;20040;-67
2022/06/04 10:30:57;;;;;;;13.65;4.32;;;;;;;;;;5076716;28;20040;-68
2022/06/04 10:33:42;;;;;;;10.52;3.80;;;;;;;;;;5076679;28;20123;-67
2022/06/04 10:36:17;;;;;;;14.43;4.93;;;;;;;;;;5076624;28;20072;-67
2022/06/04 10:38:49;;;;;;;14.10;4.28;;;;;;;;;;5076912;28;20473;-67
2022/06/04 10:41:26;;;;;;;14.32;4.38;;;;;;;;;;5076880;28;20036;-68
2022/06/04 10:43:58;;;;;;;15.70;4.43;;;;;;;;;;5076473;28;20119;-67
2022/06/04 10:46:27;;;;;;;14.82;4.97;;;;;;;;;;5076589;28;20159;-68
2022/06/04 10:49:25;;;;;;;11.32;4.10;;;;;;;;;;5076326;28;20109;-67
2022/06/04 10:51:55;;;;;;;9.77;3.97;;;;;;;;;;5076454;28;20035;-67
2022/06/04 10:54:28;;;;;;;8.68;4.20;;;;;;;;;;5076206;28;20485;-67
2022/06/04 10:56:54;;;;;;;12.57;4.30;;;;;;;;;;5076127;28;20041;-68
2022/06/04 10:59:24;;;;;;;10.02;3.60;;;;;;;;;;5076271;28;20400;-68
2022/06/04 11:01:57;;;;;;;10.90;4.18;;;;;;;;;;5076373;28;20044;-68
2022/06/04 11:04:34;;;;;;;15.57;4.30;;;;;;;;;;5076071;28;20029;-67
2022/06/04 11:07:09;;;;;;;15.18;3.83;;;;;;;;;;5075751;28;20047;-67
2022/06/04 11:09:40;;;;;;;17.83;4.45;;;;;;;;;;5076011;28;20040;-64
2022/06/04 11:12:15;;;;;;;12.80;4.82;;;;;;;;;;5075834;28;20040;-65
2022/06/04 11:14:41;;;;;;;17.10;4.50;;;;;;;;;;5075899;28;20037;-65
2022/06/04 11:17:12;;;;;;;12.68;4.00;;;;;;;;;;5075803;28;20043;-65
2022/06/04 11:20:00;;;;;;;15.65;4.32;;;;;;;;;;5075763;28;20064;-65
2022/06/04 11:22:32;;;;;;;11.98;3.63;;;;;;;;;;5075700;28;20075;-65
2022/06/04 11:25:02;;;;;;;15.45;3.60;;;;;;;;;;5075837;28;20059;-65
2022/06/04 11:27:36;;;;;;;11.20;4.03;;;;;;;;;;5074564;28;20032;-65
2022/06/04 11:30:03;;;;;;;14.82;3.50;;;;;;;;;;5075731;28;20116;-65
2022/06/04 11:32:44;;;;;;;13.23;3.38;;;;;;;;;;5075200;28;20175;-67
2022/06/04 11:35:10;;;;;;;7.00;3.95;;;;;;;;;;5075713;28;20031;-67
2022/06/04 11:37:51;;;;;;;11.13;3.40;;;;;;;;;;5074359;28;20429;-68
2022/06/04 11:40:31;;;;;;;9.55;3.30;;;;;;;;;;5075021;28;20036;-68
2022/06/04 11:42:59;;;;;;;10.52;3.58;;;;;;;;;;5075068;28;20366;-67
2022/06/04 11:45:32;;;;;;;13.48;3.92;;;;;;;;;;5074933;28;20032;-68
2022/06/04 11:47:58;;;;;;;11.27;3.15;;;;;;;;;;5075122;28;20071;-67
2022/06/04 11:50:27;;;;;;;12.15;3.70;;;;;;;;;;5074970;28;20040;-68
2022/06/04 11:52:53;;;;;;;9.90;3.70;;;;;;;;;;5074812;28;20040;-67
2022/06/04 11:55:46;;;;;;;13.48;3.80;;;;;;;;;;5074678;28;20496;-66
2022/06/04 11:58:13;;;;;;;10.18;3.30;;;;;;;;;;5066629;28;20041;-67
2022/06/04 12:00:41;;;;;;;15.20;3.65;;;;;;;;;;5074522;28;20040;-66
2022/06/04 12:03:10;;;;;;;11.70;3.38;;;;;;;;;;5074633;28;20035;-66
2022/06/04 12:05:50;;;;;;;10.63;3.30;;;;;;;;;;5074441;28;20040;-67
2022/06/04 12:08:19;;;;;;;11.50;3.50;;;;;;;;;;5074743;28;20044;-66
2022/06/04 12:10:54;;;;;;;9.00;3.30;;;;;;;;;;5074896;28;20059;-74
2022/06/04 12:13:26;;;;;;;16.30;3.22;;;;;;;;;;5074650;28;20055;-67
2022/06/04 12:16:01;;;;;;;8.52;3.45;;;;;;;;;;5074518;28;20435;-67
2022/06/04 12:18:35;;;;;;;13.82;3.25;;;;;;;;;;5074768;28;20044;-67
2022/06/04 12:24:31;;;;;;;9.45;3.40;;;;;;;;;;5074856;28;20043;-66
2022/06/04 12:27:06;;;;;;;10.55;3.08;;;;;;;;;;5074644;28;20051;-67
2022/06/04 12:29:32;;;;;;;12.07;3.42;;;;;;;;;;5074205;28;20381;-66
2022/06/04 12:32:03;;;;;;;10.73;3.28;;;;;;;;;;5074339;28;20037;-67
2022/06/04 12:34:32;;;;;;;12.93;3.45;;;;;;;;;;5074195;28;20033;-67
2022/06/04 12:36:58;;;;;;;11.75;3.17;;;;;;;;;;5073752;28;20503;-66
2022/06/04 12:39:31;;;;;;;8.20;3.15;;;;;;;;;;5074157;28;20393;-67
2022/06/04 12:41:59;;;;;;;11.40;2.95;;;;;;;;;;5074220;28;20024;-66
2022/06/04 12:44:30;;;;;;;7.65;3.05;;;;;;;;;;5074118;28;20037;-66
2022/06/04 12:47:09;;;;;;;10.85;3.33;;;;;;;;;;5073984;28;20035;-67
2022/06/04 12:49:50;;;;;;;8.80;3.15;;;;;;;;;;5073852;28;20064;-67
2022/06/04 12:52:35;;;;;;;17.05;3.90;;;;;;;;;;5073824;28;20400;-67
2022/06/04 12:55:02;;;;;;;14.27;3.40;;;;;;;;;;5073907;28;20040;-69
2022/06/04 12:57:32;;;;;;;10.65;3.20;;;;;;;;;;5073902;28;20032;-68
2022/06/04 13:00:17;;;;;;;11.40;3.35;;;;;;;;;;5073563;28;20116;-68
2022/06/04 13:02:55;;;;;;;9.55;3.10;;;;;;;;;;5073350;28;20035;-69
2022/06/04 13:05:26;;;;;;;9.15;3.38;;;;;;;;;;5073721;28;20393;-68
2022/06/04 13:08:01;;;;;;;9.00;3.20;;;;;;;;;;5071496;28;20082;-68
2022/06/04 13:10:31;;;;;;;10.95;3.13;;;;;;;;;;5070312;28;20048;-69
2022/06/04 13:13:24;;;;;;;7.40;3.17;;;;;;;;;;5070173;28;20040;-68
2022/06/04 13:15:54;;;;;;;12.35;3.13;;;;;;;;;;5063285;28;20469;-67
2022/06/04 13:18:23;;;;;;;9.57;3.00;;;;;;;;;;5072885;28;20032;-67
2022/06/04 13:20:49;;;;;;;20.15;3.55;;;;;;;;;;5072858;28;20029;-68
2022/06/04 13:23:24;;;;;;;15.43;3.92;;;;;;;;;;5072480;28;20043;-69
2022/06/04 13:26:13;;;;;;;11.15;3.42;;;;;;;;;;5072717;28;20477;-68
2022/06/04 13:28:41;;;;;;;7.88;3.45;;;;;;;;;;5064644;28;20111;-69
2022/06/04 13:31:17;;;;;;;9.52;2.97;;;;;;;;;;5071745;28;20054;-69
2022/06/04 13:33:43;;;;;;;9.55;3.53;;;;;;;;;;5072949;28;20124;-69
2022/06/04 13:36:09;;;;;;;9.20;3.15;;;;;;;;;;5073111;28;20032;-68
2022/06/04 13:38:39;;;;;;;10.60;3.00;;;;;;;;;;5072665;28;20036;-68
2022/06/04 13:41:06;;;;;;;12.25;3.38;;;;;;;;;;5071730;28;20385;-68
2022/06/04 13:43:40;;;;;;;10.85;3.53;;;;;;;;;;5071175;28;20064;-68
2022/06/04 13:46:15;;;;;;;12.40;3.47;;;;;;;;;;5072148;28;20036;-68
2022/06/04 13:48:53;;;;;;;9.27;3.13;;;;;;;;;;5071683;28;20389;-69
2022/06/04 13:51:20;;;;;;;10.45;3.10;;;;;;;;;;5070068;28;20381;-68
2022/06/04 13:53:53;;;;;;;9.88;3.08;;;;;;;;;;5071809;28;20447;-69
2022/06/04 13:56:19;;;;;;;10.48;3.50;;;;;;;;;;5072883;28;20516;-68
2022/06/04 13:58:46;;;;;;;15.75;3.28;;;;;;;;;;5072803;28;20374;-68
2022/06/04 14:01:16;;;;;;;13.02;3.28;;;;;;;;;;5070530;28;20028;-69
2022/06/04 14:03:46;;;;;;;15.68;3.80;;;;;;;;;;5070756;28;20032;-69
2022/06/04 14:06:12;;;;;;;11.40;3.35;;;;;;;;;;5070220;28;20033;-68
2022/06/04 14:08:51;;;;;;;13.38;2.75;;;;;;;;;;5071671;28;20040;-67
2022/06/04 14:11:36;;;;;;;12.05;2.92;;;;;;;;;;5071577;28;20485;-68
2022/06/04 14:14:06;;;;;;;15.32;3.55;;;;;;;;;;5071643;28;20043;-69
2022/06/04 14:16:35;;;;;;;14.73;3.20;;;;;;;;;;5068426;28;20513;-75
2022/06/04 14:19:10;;;;;;;16.35;3.38;;;;;;;;;;5070398;28;20147;-69
2022/06/04 14:21:48;;;;;;;16.20;3.53;;;;;;;;;;5072772;28;20036;-69
2022/06/04 14:24:21;;;;;;;10.07;2.88;;;;;;;;;;5072403;28;20044;-68
2022/06/04 14:26:47;;;;;;;13.48;3.65;;;;;;;;;;5072285;28;20052;-69
2022/06/04 14:29:21;;;;;;;12.10;2.95;;;;;;;;;;5071831;28;20037;-69
2022/06/04 14:32:09;;;;;;;11.95;3.17;;;;;;;;;;5072036;28;20117;-69
2022/06/04 14:34:36;;;;;;;13.40;2.80;;;;;;;;;;5072115;28;20370;-69
2022/06/04 14:37:03;;;;;;;14.43;3.33;;;;;;;;;;5071851;28;20028;-69
2022/06/04 14:39:31;;;;;;;12.45;4.00;;;;;;;;;;5072419;28;20477;-68
2022/06/04 14:42:02;;;;;;;16.58;3.20;;;;;;;;;;5072152;28;20047;-69
2022/06/04 14:44:29;;;;;;;15.13;3.80;;;;;;;;;;5072638;28;20493;-68
2022/06/04 14:46:57;;;;;;;8.45;2.97;;;;;;;;;;5071955;28;20032;-68
2022/06/04 14:49:39;;;;;;;11.30;3.28;;;;;;;;;;5072375;28;20436;-73
2022/06/04 14:52:20;;;;;;;11.43;3.78;;;;;;;;;;5072422;28;20440;-71
2022/06/04 14:54:48;;;;;;;17.25;3.70;;;;;;;;;;5072504;28;20044;-69
2022/06/04 14:57:29;;;;;;;12.13;3.53;;;;;;;;;;5072738;28;20033;-69
2022/06/04 14:59:58;;;;;;;11.15;3.67;;;;;;;;;;5067364;28;20032;-69
2022/06/04 15:02:39;;;;;;;22.23;3.53;;;;;;;;;;5070442;28;20054;-69
2022/06/04 15:05:20;;;;;;;15.07;3.83;;;;;;;;;;5073981;28;20035;-68
2022/06/04 15:07:46;;;;;;;11.00;3.03;;;;;;;;;;5075140;28;20393;-67
2022/06/04 15:10:12;;;;;;;15.15;3.50;;;;;;;;;;5074529;28;20051;-68
2022/06/04 15:12:41;;;;;;;10.35;3.47;;;;;;;;;;5075570;28;20287;-68
2022/06/04 15:15:10;;;;;;;11.55;3.40;;;;;;;;;;5074793;28;20120;-68
2022/06/04 15:17:51;;;;;;;14.25;3.22;;;;;;;;;;5075244;28;20428;-67
2022/06/04 15:20:18;;;;;;;8.40;2.92;;;;;;;;;;5075261;28;20040;-68
2022/06/04 15:23:03;;;;;;;17.33;3.33;;;;;;;;;;5075274;28;20040;-68
2022/06/04 15:25:44;;;;;;;12.48;3.63;;;;;;;;;;5075209;28;20450;-68
2022/06/04 15:34:00;;;;;;;12.07;3.50;;;;;;;;;;5075169;28;20067;-68
2022/06/04 15:36:36;;;;;;;14.85;3.47;;;;;;;;;;5075003;28;20444;-69
2022/06/04 15:39:06;;;;;;;15.10;3.25;;;;;;;;;;5075431;28;20090;-68
2022/06/04 15:41:38;;;;;;;20.30;3.80;;;;;;;;;;5075271;28;20042;-68
2022/06/04 15:44:09;;;;;;;7.95;2.72;;;;;;;;;;5074693;28;20044;-69
2022/06/04 15:46:38;;;;;;;13.20;3.10;;;;;;;;;;5074797;28;20040;-68
2022/06/04 15:49:15;;;;;;;11.90;3.25;;;;;;;;;;5074888;28;20500;-69
2022/06/04 15:57:39;;;;;;;16.45;4.05;;;;;;;;;;5053027;28;20487;-68
2022/06/04 16:00:17;;;;;;;14.52;3.95;;;;;;;;;;5066765;28;20094;-67
2022/06/04 16:02:43;;;;;;;19.52;4.13;;;;;;;;;;5074624;28;20045;-68
2022/06/04 16:05:30;;;;;;;11.43;2.95;;;;;;;;;;5072718;28;20040;-67
2022/06/04 16:07:59;;;;;;;11.80;3.17;;;;;;;;;;5071429;28;20067;-69
2022/06/04 16:10:30;;;;;;;11.52;3.28;;;;;;;;;;5072964;28;20034;-73
2022/06/04 16:12:56;;;;;;;11.95;3.00;;;;;;;;;;5074535;28;20445;-68
2022/06/04 16:15:32;;;;;;;11.05;3.25;;;;;;;;;;5072504;28;20127;-68
2022/06/04 16:17:58;;;;;;;17.90;3.45;;;;;;;;;;5074986;28;20421;-68
2022/06/04 16:20:37;;;;;;;11.43;3.00;;;;;;;;;;5074249;28;20469;-73
2022/06/04 16:23:09;;;;;;;8.70;2.80;;;;;;;;;;5074965;28;20055;-68
2022/06/04 16:25:43;;;;;;;13.73;2.88;;;;;;;;;;5074235;28;20051;-68
2022/06/04 16:28:17;;;;;;;15.45;3.85;;;;;;;;;;5074481;28;20040;-69
2022/06/04 16:30:44;;;;;;;13.80;3.10;;;;;;;;;;5074489;28;20024;-68
2022/06/04 16:33:13;;;;;;;11.65;3.28;;;;;;;;;;5074638;28;20036;-68
2022/06/04 16:35:48;;;;;;;13.73;3.20;;;;;;;;;;5074584;28;20039;-68
2022/06/04 16:38:25;;;;;;;13.95;3.40;;;;;;;;;;5073980;28;20033;-72
2022/06/04 16:43:38;;;;;;;9.73;3.00;;;;;;;;;;5073730;28;20060;-72
2022/06/04 16:46:05;;;;;;;12.98;3.60;;;;;;;;;;5073934;28;20127;-68
2022/06/04 16:48:33;;;;;;;8.50;2.83;;;;;;;;;;5074000;28;20039;-70
2022/06/04 16:51:01;;;;;;;15.35;3.15;;;;;;;;;;5073953;28;20028;-68
2022/06/04 16:53:32;;;;;;;14.73;3.95;;;;;;;;;;5073628;28;20037;-68
2022/06/04 16:55:58;;;;;;;12.10;4.10;;;;;;;;;;5073846;28;20079;-68
2022/06/04 16:58:25;;;;;;;11.43;3.47;;;;;;;;;;5073381;28;20469;-68
2022/06/04 17:00:52;;;;;;;13.88;3.20;;;;;;;;;;5073650;28;20513;-73
2022/06/04 17:03:18;;;;;;;11.25;2.72;;;;;;;;;;5073426;28;20515;-68
2022/06/04 17:05:47;;;;;;;10.82;2.90;;;;;;;;;;5073647;28;20107;-68
2022/06/04 17:08:13;;;;;;;11.07;3.28;;;;;;;;;;5073489;28;20053;-70
2022/06/04 17:10:58;;;;;;;15.10;4.05;;;;;;;;;;5073440;28;20115;-69
2022/06/04 17:13:33;;;;;;;16.30;4.15;;;;;;;;;;5073939;28;20036;-68
2022/06/04 17:16:22;;;;;;;16.50;3.75;;;;;;;;;;5073385;28;20036;-68
2022/06/04 17:19:02;;;;;;;12.10;3.33;;;;;;;;;;5073130;28;20037;-68
2022/06/04 17:21:31;;;;;;;13.55;3.50;;;;;;;;;;5073495;28;20032;-68
2022/06/04 17:24:03;;;;;;;10.70;3.63;;;;;;;;;;5073389;28;20110;-69
2022/06/04 17:27:05;;;;;;;10.43;3.13;;;;;;;;;;5072176;28;20060;-68
2022/06/04 17:29:40;;;;;;;16.55;4.53;;;;;;;;;;5051119;28;20107;-68
2022/06/04 17:32:09;;;;;;;13.63;4.03;;;;;;;;;;5070494;28;20134;-72
2022/06/04 17:34:51;;;;;;;16.42;4.28;;;;;;;;;;5073225;28;20044;-68
2022/06/04 17:37:33;;;;;;;9.10;3.55;;;;;;;;;;5073014;28;20511;-68
2022/06/04 17:40:18;;;;;;;15.05;4.25;;;;;;;;;;5073086;28;20503;-68
2022/06/04 17:42:44;;;;;;;13.68;4.05;;;;;;;;;;5072682;28;20044;-68
2022/06/04 17:45:10;;;;;;;8.88;3.50;;;;;;;;;;5073154;28;20037;-73
2022/06/04 20:39:18;;;;;;;21.70;5.03;;;;;;;;;;5091178;28;20439;-69
2022/06/04 20:41:44;;;;;;;13.00;4.93;;;;;;;;;;5093416;28;20040;-69
2022/06/04 20:44:11;;;;;;;16.83;5.18;;;;;;;;;;5093378;28;20469;-70
2022/06/04 20:46:38;;;;;;;15.23;4.90;;;;;;;;;;5093495;28;20487;-70
2022/06/04 20:49:15;;;;;;;16.60;4.82;;;;;;;;;;5093379;28;20036;-69
2022/06/04 20:51:42;;;;;;;11.23;4.25;;;;;;;;;;5093106;28;20043;-69
2022/06/04 20:54:08;;;;;;;13.15;5.25;;;;;;;;;;5093303;28;20484;-69
2022/06/04 20:56:35;;;;;;;13.20;5.28;;;;;;;;;;5092997;28;20097;-69
2022/06/04 20:59:02;;;;;;;21.55;4.82;;;;;;;;;;5092621;28;20051;-69
2022/06/04 21:01:28;;;;;;;20.85;5.82;;;;;;;;;;5093450;28;20043;-69
2022/06/04 21:03:55;;;;;;;19.13;5.63;;;;;;;;;;5092894;28;20131;-66
2022/06/04 21:06:21;;;;;;;19.42;5.30;;;;;;;;;;5093031;28;20040;-66
2022/06/04 21:08:48;;;;;;;16.23;4.70;;;;;;;;;;5092186;28;20032;-65
2022/06/04 21:11:15;;;;;;;18.17;4.65;;;;;;;;;;5093566;28;20477;-66
2022/06/04 21:13:42;;;;;;;14.18;4.32;;;;;;;;;;5093125;28;20021;-65
2022/06/04 21:16:19;;;;;;;14.35;4.15;;;;;;;;;;5093450;28;20119;-66
2022/06/04 21:18:46;;;;;;;12.80;4.35;;;;;;;;;;5093377;28;20722;-67
2022/06/04 21:21:12;;;;;;;20.45;5.10;;;;;;;;;;5093614;28;20032;-66
2022/06/04 21:23:39;;;;;;;21.85;4.70;;;;;;;;;;5093294;28;20040;-69
2022/06/04 21:26:05;;;;;;;15.68;4.80;;;;;;;;;;5093599;28;20035;-79
2022/06/04 21:28:31;;;;;;;15.15;4.50;;;;;;;;;;5093352;28;20036;-73
2022/06/04 21:30:57;;;;;;;14.02;3.95;;;;;;;;;;5090428;28;20044;-73
2022/06/04 21:33:23;;;;;;;15.10;4.38;;;;;;;;;;5090634;28;20047;-73
2022/06/04 21:38:36;;;;;;;17.30;4.38;;;;;;;;;;5093004;28;20047;-77
2022/06/04 21:41:02;;;;;;;15.30;5.10;;;;;;;;;;5093448;28;20075;-73
2022/06/04 21:43:28;;;;;;;17.88;4.03;;;;;;;;;;5093304;28;20040;-73
2022/06/04 21:45:54;;;;;;;18.58;4.25;;;;;;;;;;5093232;28;20086;-78
2022/06/04 21:48:20;;;;;;;20.67;4.50;;;;;;;;;;5093184;28;20111;-78
2022/06/04 21:50:47;;;;;;;21.52;4.85;;;;;;;;;;5092994;28;20028;-73
2022/06/04 21:53:14;;;;;;;12.40;4.53;;;;;;;;;;5093293;28;20032;-73
2022/06/04 21:55:41;;;;;;;16.33;4.50;;;;;;;;;;5092798;28;20044;-73
2022/06/04 21:58:08;;;;;;;9.55;4.93;;;;;;;;;;5093064;28;20040;-75
2022/06/04 22:00:34;;;;;;;16.67;5.05;;;;;;;;;;5092816;28;20115;-73
2022/06/04 22:03:01;;;;;;;12.30;4.95;;;;;;;;;;5092885;28;20155;-73
2022/06/04 22:05:27;;;;;;;16.33;4.93;;;;;;;;;;5092794;28;20396;-73
2022/06/04 22:07:54;;;;;;;13.43;5.10;;;;;;;;;;5093005;28;20040;-73
2022/06/04 22:10:21;;;;;;;16.35;5.95;;;;;;;;;;5093063;28;20029;-72
2022/06/04 22:12:47;;;;;;;16.83;5.35;;;;;;;;;;5095033;28;20043;-73
2022/06/04 22:15:15;;;;;;;13.80;5.03;;;;;;;;;;5097291;28;20078;-73
2022/06/04 22:17:41;;;;;;;20.95;5.88;;;;;;;;;;5096937;28;20054;-73
2022/06/04 22:20:09;;;;;;;15.10;5.78;;;;;;;;;;5097092;28;20043;-79
2022/06/04 22:22:35;;;;;;;18.92;6.05;;;;;;;;;;5096875;28;20044;-73
2022/06/04 22:25:01;;;;;;;16.98;6.10;;;;;;;;;;5096947;28;20416;-79
2022/06/04 22:27:28;;;;;;;13.15;6.40;;;;;;;;;;5096922;28;20040;-73
2022/06/04 22:29:57;;;;;;;13.02;6.50;;;;;;;;;;5096680;28;20458;-78
2022/06/04 22:32:24;;;;;;;14.38;5.55;;;;;;;;;;5096743;28;20032;-73
2022/06/04 22:34:50;;;;;;;14.35;5.35;;;;;;;;;;5096696;28;20492;-73
2022/06/04 22:37:16;;;;;;;20.08;6.28;;;;;;;;;;5096802;28;20067;-78
2022/06/04 22:39:43;;;;;;;18.13;5.38;;;;;;;;;;5096803;28;20035;-78
2022/06/04 22:42:09;;;;;;;13.20;5.35;;;;;;;;;;5096436;28;20036;-73
2022/06/04 22:44:36;;;;;;;14.75;5.82;;;;;;;;;;5096662;28;20024;-76
2022/06/04 22:47:02;;;;;;;11.75;5.07;;;;;;;;;;5096573;28;20036;-78
2022/06/04 22:49:29;;;;;;;17.38;5.93;;;;;;;;;;5096544;28;20036;-73
2022/06/04 22:51:55;;;;;;;11.95;4.93;;;;;;;;;;5096226;28;20039;-77
2022/06/04 22:54:28;;;;;;;17.70;5.70;;;;;;;;;;5096187;28;20050;-72
2022/06/04 22:56:55;;;;;;;15.77;5.43;;;;;;;;;;5096337;28;20040;-73
2022/06/04 22:59:23;;;;;;;15.90;5.10;;;;;;;;;;5096138;28;20047;-78
2022/06/04 23:01:49;;;;;;;17.92;5.20;;;;;;;;;;5095842;28;20032;-73
2022/06/04 23:04:16;;;;;;;17.30;4.82;;;;;;;;;;5095703;28;20136;-72
2022/06/04 23:06:43;;;;;;;18.30;4.68;;;;;;;;;;5096416;28;20090;-78
2022/06/04 23:09:10;;;;;;;12.10;4.55;;;;;;;;;;5096043;28;20032;-73
2022/06/04 23:23:04;;;;;;;16.58;5.60;;;;;;;;;;5096015;28;20044;-73
2022/06/04 23:25:28;;;;;;;15.65;5.70;;;;;;;;;;5095567;28;20028;-72
2022/06/04 23:27:54;;;;;;;12.98;5.65;;;;;;;;;;5095841;28;20109;-72
2022/06/04 23:30:20;;;;;;;12.82;5.80;;;;;;;;;;5095727;28;20462;-72
2022/06/04 23:32:46;;;;;;;12.25;6.13;;;;;;;;;;5095506;28;20056;-73
2022/06/04 23:35:12;;;;;;;17.90;5.97;;;;;;;;;;5095464;28;20089;-73
2022/06/04 23:37:38;;;;;;;11.75;5.53;;;;;;;;;;5094048;28;20048;-73
2022/06/04 23:40:05;;;;;;;13.98;5.75;;;;;;;;;;5095643;28;20097;-73
2022/06/04 23:42:31;;;;;;;14.13;5.82;;;;;;;;;;5095418;28;20090;-72
2022/06/04 23:44:57;;;;;;;16.52;5.97;;;;;;;;;;5095649;28;20028;-74
2022/06/04 23:47:23;;;;;;;12.35;5.60;;;;;;;;;;5095378;28;20039;-73
2022/06/04 23:49:49;;;;;;;13.25;4.95;;;;;;;;;;5095052;28;20034;-78
2022/06/04 23:52:15;;;;;;;13.20;4.75;;;;;;;;;;5094066;28;20060;-72
2022/06/04 23:54:41;;;;;;;13.13;4.70;;;;;;;;;;5095408;28;20079;-72
2022/06/04 23:57:07;;;;;;;13.63;4.22;;;;;;;;;;5093811;28;20462;-77
2022/06/04 23:59:33;;;;;;;11.73;4.13;;;;;;;;;;5095298;28;20028;-73
